createdAt,value
2023-11-11T00:00:17.263Z,96497.84
2023-11-11T00:03:19.619Z,96473.59
2023-11-11T00:06:21.880Z,96498.03
2023-11-11T00:09:24.623Z,96497.66
2023-11-11T00:12:28.402Z,96486.47
2023-11-11T00:15:30.675Z,96481.84
2023-11-11T00:18:32.770Z,96485.72
2023-11-11T00:21:40.273Z,96475.97
2023-11-11T00:24:43.822Z,96492.00
2023-11-11T00:27:46.553Z,96504.34
2023-11-11T00:30:48.768Z,96462.41
2023-11-11T00:33:50.995Z,96482.34
2023-11-11T00:36:54.232Z,96468.00
2023-11-11T00:39:59.822Z,96486.50
2023-11-11T00:43:02.982Z,96494.81
2023-11-11T00:46:05.420Z,96495.31
2023-11-11T00:49:08.920Z,96507.72
2023-11-11T00:52:11.531Z,96507.44
2023-11-11T00:55:13.807Z,96496.59
2023-11-11T00:58:15.921Z,96498.78
2023-11-11T01:01:18.197Z,96499.72
2023-11-11T01:04:20.604Z,96506.38
2023-11-11T01:07:22.806Z,96481.50
2023-11-11T01:10:25.909Z,96498.59
2023-11-11T01:13:28.071Z,96468.16
2023-11-11T01:16:30.209Z,96488.19
2023-11-11T01:19:32.640Z,96497.97
2023-11-11T01:22:34.897Z,96493.81
2023-11-11T01:25:37.254Z,96484.56
2023-11-11T01:28:40.771Z,96485.69
2023-11-11T01:31:43.630Z,96487.53
2023-11-11T01:34:46.353Z,96485.19
2023-11-11T01:37:48.664Z,96467.66
2023-11-11T01:40:50.709Z,96424.31
2023-11-11T01:43:53.644Z,96458.22
2023-11-11T01:46:56.663Z,96448.88
2023-11-11T01:50:00.436Z,96456.19
2023-11-11T01:53:02.947Z,96389.59
2023-11-11T01:56:06.469Z,96457.09
2023-11-11T01:59:09.842Z,96462.38
2023-11-11T02:02:12.767Z,96465.78
2023-11-11T02:05:15.876Z,96464.91
2023-11-11T02:08:18.183Z,96454.63
2023-11-11T02:11:21.097Z,96454.09
2023-11-11T02:14:23.411Z,96440.00
2023-11-11T02:17:27.421Z,96439.25
2023-11-11T02:20:34.650Z,96436.97
2023-11-11T02:23:38.399Z,96429.69
2023-11-11T02:26:40.640Z,96436.00
2023-11-11T02:29:46.720Z,96424.72
2023-11-11T02:32:50.131Z,96429.22
2023-11-11T02:35:52.604Z,96433.91
2023-11-11T02:38:55.276Z,96425.09
2023-11-11T02:41:57.402Z,96405.06
2023-11-11T02:44:59.465Z,96434.78
2023-11-11T02:48:05.548Z,96441.53
2023-11-11T02:51:07.665Z,96433.66
2023-11-11T02:54:10.316Z,96438.34
2023-11-11T02:57:12.518Z,96438.88
2023-11-11T03:00:15.474Z,96415.03
2023-11-11T03:03:17.607Z,96442.59
2023-11-11T03:06:19.745Z,96445.72
2023-11-11T03:09:21.907Z,96439.94
2023-11-11T03:12:24.260Z,96432.66
2023-11-11T03:15:26.356Z,96433.44
2023-11-11T03:18:28.491Z,96429.69
2023-11-11T03:21:30.606Z,96418.84
2023-11-11T03:24:33.329Z,96408.44
2023-11-11T03:27:35.677Z,96423.13
2023-11-11T03:30:37.755Z,96389.00
2023-11-11T03:33:40.229Z,96417.47
2023-11-11T03:36:42.832Z,96416.69
2023-11-11T03:39:46.305Z,96394.28
2023-11-11T03:42:48.715Z,96408.34
2023-11-11T03:45:50.904Z,96414.03
2023-11-11T03:48:54.263Z,96412.44
2023-11-11T03:51:56.433Z,96415.09
2023-11-11T03:54:58.448Z,96416.38
2023-11-11T03:58:00.720Z,96403.91
2023-11-11T04:01:02.842Z,96402.00
2023-11-11T04:04:05.183Z,96393.44
2023-11-11T04:07:07.309Z,96395.41
2023-11-11T04:10:10.339Z,96391.41
2023-11-11T04:13:14.484Z,96376.16
2023-11-11T04:16:16.553Z,96316.09
2023-11-11T04:19:18.998Z,96391.22
2023-11-11T04:22:21.419Z,96384.56
2023-11-11T04:25:23.560Z,96394.81
2023-11-11T04:28:27.197Z,96377.97
2023-11-11T04:31:29.392Z,96397.44
2023-11-11T04:34:31.591Z,96393.75
2023-11-11T04:37:33.697Z,96392.22
2023-11-11T04:40:37.656Z,96385.25
2023-11-11T04:43:39.801Z,96378.19
2023-11-11T04:46:41.997Z,96375.22
2023-11-11T04:49:45.347Z,96374.69
2023-11-11T04:52:47.578Z,96376.22
2023-11-11T04:55:49.728Z,96374.56
2023-11-11T04:58:51.790Z,96371.66
2023-11-11T05:01:55.376Z,96376.09
2023-11-11T05:04:57.629Z,96372.84
2023-11-11T05:07:59.687Z,96373.25
2023-11-11T05:11:02.930Z,96378.75
2023-11-11T05:14:09.369Z,96375.09
2023-11-11T05:17:11.523Z,96375.78
2023-11-11T05:20:18.611Z,96361.34
2023-11-11T05:23:21.291Z,96375.44
2023-11-11T05:26:23.374Z,96376.88
2023-11-11T05:29:25.436Z,96382.66
2023-11-11T05:32:30.262Z,96381.47
2023-11-11T05:35:32.502Z,96372.88
2023-11-11T05:38:34.755Z,96372.06
2023-11-11T05:41:39.055Z,96376.75
2023-11-11T05:44:44.141Z,96358.31
2023-11-11T05:47:46.596Z,96378.06
2023-11-11T05:50:48.849Z,96382.78
2023-11-11T05:53:51.012Z,96370.47
2023-11-11T05:56:53.044Z,96380.97
2023-11-11T05:59:55.125Z,96359.09
2023-11-11T06:02:57.831Z,96389.69
2023-11-11T06:06:01.910Z,96382.72
2023-11-11T06:09:05.072Z,96398.50
2023-11-11T06:12:07.465Z,96393.78
2023-11-11T06:15:10.909Z,96394.56
2023-11-11T06:18:14.179Z,96401.59
2023-11-11T06:21:16.267Z,96404.97
2023-11-11T06:24:18.830Z,96409.38
2023-11-11T06:27:20.948Z,96407.47
2023-11-11T06:30:23.070Z,96404.19
2023-11-11T06:33:25.285Z,96392.75
2023-11-11T06:36:27.475Z,96387.81
2023-11-11T06:39:31.924Z,96402.75
2023-11-11T06:42:34.853Z,96408.03
2023-11-11T06:45:36.966Z,96405.16
2023-11-11T06:48:39.262Z,96409.88
2023-11-11T06:51:41.347Z,96417.56
2023-11-11T06:54:45.086Z,96405.41
2023-11-11T06:57:47.254Z,96401.16
2023-11-11T07:00:49.459Z,96408.53
2023-11-11T07:03:52.056Z,96425.72
2023-11-11T07:06:54.228Z,96437.59
2023-11-11T07:09:56.407Z,96428.13
2023-11-11T07:12:58.792Z,96422.22
2023-11-11T07:16:01.756Z,96434.78
2023-11-11T07:19:05.282Z,96442.00
2023-11-11T07:25:13.260Z,96441.00
2023-11-11T07:28:16.612Z,96440.53
2023-11-11T07:31:20.700Z,96449.59
2023-11-11T07:34:23.176Z,96451.75
2023-11-11T07:37:28.616Z,96457.81
2023-11-11T07:40:30.721Z,96457.72
2023-11-11T07:43:33.162Z,96456.16
2023-11-11T07:46:35.520Z,96464.16
2023-11-11T07:49:39.460Z,96464.47
2023-11-11T07:52:41.526Z,96467.00
2023-11-11T07:55:43.527Z,96471.06
2023-11-11T07:58:48.661Z,96479.63
2023-11-11T08:01:51.038Z,96482.59
2023-11-11T08:04:53.248Z,96493.34
2023-11-11T08:08:08.204Z,96490.34
2023-11-11T08:11:16.866Z,96501.53
2023-11-11T08:14:19.105Z,96493.72
2023-11-11T08:17:23.914Z,96505.75
2023-11-11T08:20:26.089Z,96464.75
2023-11-11T08:23:28.309Z,96509.63
2023-11-11T08:26:30.530Z,96511.53
2023-11-11T08:29:32.751Z,96488.72
2023-11-11T08:32:34.942Z,96499.56
2023-11-11T08:35:37.031Z,96495.69
2023-11-11T08:38:39.461Z,96485.75
2023-11-11T08:41:41.761Z,96492.50
2023-11-11T08:44:44.330Z,96501.00
2023-11-11T08:47:46.761Z,96480.94
2023-11-11T08:50:49.603Z,96508.94
2023-11-11T08:53:52.191Z,96504.22
2023-11-11T08:56:55.776Z,96515.34
2023-11-11T08:59:57.805Z,96507.44
2023-11-11T09:02:59.919Z,96507.47
2023-11-11T09:06:03.617Z,96508.41
2023-11-11T09:09:05.985Z,96502.81
2023-11-11T09:12:08.390Z,96490.66
2023-11-11T09:15:12.312Z,96492.53
2023-11-11T09:18:15.613Z,96487.00
2023-11-11T09:21:17.721Z,96487.84
2023-11-11T09:24:19.949Z,96474.09
2023-11-11T09:27:22.036Z,96447.00
2023-11-11T09:30:24.877Z,96472.31
2023-11-11T09:33:27.098Z,96465.84
2023-11-11T09:36:29.991Z,96442.53
2023-11-11T09:39:32.187Z,96468.03
2023-11-11T09:42:34.451Z,96473.44
2023-11-11T09:45:36.685Z,96437.00
2023-11-11T09:48:39.367Z,96464.06
2023-11-11T09:51:42.263Z,96430.09
2023-11-11T09:54:47.825Z,96430.16
2023-11-11T09:57:50.966Z,96438.97
2023-11-11T10:00:53.375Z,96447.72
2023-11-11T10:03:57.599Z,96434.94
2023-11-11T10:06:59.767Z,96436.59
2023-11-11T10:10:02.225Z,96424.84
2023-11-11T10:13:04.532Z,96416.38
2023-11-11T10:16:27.169Z,96421.34
2023-11-11T10:19:29.276Z,96412.53
2023-11-11T10:22:31.406Z,96410.78
2023-11-11T10:25:33.929Z,96410.97
2023-11-11T10:28:36.000Z,96399.31
2023-11-11T10:31:38.915Z,96406.97
2023-11-11T10:34:42.108Z,96413.13
2023-11-11T10:37:45.610Z,96423.25
2023-11-11T10:40:48.445Z,96422.63
2023-11-11T10:43:51.555Z,96416.25
2023-11-11T10:46:55.300Z,96397.66
2023-11-11T10:50:00.267Z,96401.97
2023-11-11T10:53:05.461Z,96404.00
2023-11-11T10:56:08.274Z,96393.44
2023-11-11T10:59:12.060Z,96416.56
2023-11-11T11:02:15.199Z,96415.22
2023-11-11T11:05:30.007Z,96402.50
2023-11-11T11:08:47.438Z,96395.31
2023-11-11T11:12:16.629Z,96391.88
2023-11-11T11:15:20.983Z,96368.72
2023-11-11T11:18:26.598Z,96398.22
2023-11-11T11:21:30.094Z,96376.97
2023-11-11T11:24:34.277Z,96351.44
2023-11-11T11:27:36.279Z,96365.84
2023-11-11T11:30:57.368Z,96362.63
2023-11-11T11:34:00.080Z,96329.41
2023-11-11T11:37:02.864Z,96372.69
2023-11-11T11:40:10.570Z,96335.03
2023-11-11T11:43:13.101Z,96349.38
2023-11-11T11:46:15.343Z,96352.03
2023-11-11T11:49:17.377Z,96358.91
2023-11-11T11:52:20.815Z,96347.00
2023-11-11T11:55:26.671Z,96351.22
2023-11-11T11:58:29.749Z,96351.75
2023-11-11T12:01:34.608Z,96384.38
2023-11-11T12:04:37.199Z,96355.94
2023-11-11T12:07:40.089Z,96344.78
2023-11-11T12:11:02.818Z,96347.38
2023-11-11T12:14:23.508Z,96344.13
2023-11-11T12:17:27.165Z,96350.22
2023-11-11T12:20:45.177Z,96388.16
2023-11-11T12:23:49.421Z,96385.38
2023-11-11T12:26:52.292Z,96384.09
2023-11-11T12:29:54.739Z,96371.00
2023-11-11T12:33:07.941Z,96378.16
2023-11-11T12:36:10.979Z,96393.97
2023-11-11T12:39:15.755Z,96372.75
2023-11-11T12:42:27.601Z,96423.59
2023-11-11T12:45:32.113Z,96424.88
2023-11-11T12:48:35.872Z,96388.00
2023-11-11T12:51:39.860Z,96418.38
2023-11-11T12:54:42.541Z,96391.00
2023-11-11T12:57:44.937Z,96383.09
2023-11-11T13:00:51.405Z,96396.28
2023-11-11T13:03:53.794Z,96409.31
2023-11-11T13:06:56.061Z,96405.91
2023-11-11T13:09:58.228Z,96433.91
2023-11-11T13:13:00.406Z,96418.38
2023-11-11T13:16:02.765Z,96418.38
2023-11-11T13:19:04.932Z,96427.69
2023-11-11T13:22:10.594Z,96425.53
2023-11-11T13:25:13.184Z,96448.16
2023-11-11T13:28:15.718Z,96431.53
2023-11-11T13:31:22.726Z,96451.97
2023-11-11T13:34:25.384Z,96410.50
2023-11-11T13:37:29.993Z,96424.97
2023-11-11T13:40:41.136Z,96431.47
2023-11-11T13:43:49.395Z,96446.53
2023-11-11T13:46:52.368Z,96458.97
2023-11-11T13:49:55.964Z,96462.78
2023-11-11T13:53:00.875Z,96430.63
2023-11-11T13:56:05.893Z,96453.84
2023-11-11T13:59:10.362Z,96434.28
2023-11-11T14:02:13.870Z,96459.25
2023-11-11T14:05:23.160Z,96473.13
2023-11-11T14:08:26.682Z,96473.34
2023-11-11T14:11:29.278Z,96469.84
2023-11-11T14:14:31.449Z,96497.22
2023-11-11T14:17:34.381Z,96486.38
2023-11-11T14:20:36.957Z,96494.13
2023-11-11T14:23:41.348Z,96485.44
2023-11-11T14:26:48.034Z,96514.75
2023-11-11T14:29:50.117Z,96503.81
2023-11-11T14:32:52.306Z,96507.22
2023-11-11T14:35:54.578Z,96481.22
2023-11-11T14:38:56.648Z,96497.16
2023-11-11T14:41:59.054Z,96497.25
2023-11-11T14:45:01.811Z,96525.97
2023-11-11T14:48:04.259Z,96507.09
2023-11-11T14:51:06.777Z,96524.31
2023-11-11T14:54:10.774Z,96519.22
2023-11-11T14:57:14.116Z,96523.94
2023-11-11T15:00:24.358Z,96530.53
2023-11-11T15:03:28.019Z,96539.53
2023-11-11T15:06:33.342Z,96523.94
2023-11-11T15:09:35.738Z,96556.72
2023-11-11T15:12:40.761Z,96549.75
2023-11-11T15:15:42.971Z,96557.25
2023-11-11T15:18:46.406Z,96561.78
2023-11-11T15:21:51.271Z,96561.44
2023-11-11T15:24:56.874Z,96568.72
2023-11-11T15:27:59.628Z,96571.75
2023-11-11T15:31:01.871Z,96584.34
2023-11-11T15:34:10.383Z,96590.09
2023-11-11T15:37:16.101Z,96605.97
2023-11-11T15:40:19.002Z,96614.13
2023-11-11T15:43:21.140Z,96615.78
2023-11-11T15:46:23.362Z,96627.03
2023-11-11T15:49:26.540Z,96641.28
2023-11-11T15:52:28.934Z,96631.53
2023-11-11T15:55:32.216Z,96643.72
2023-11-11T15:58:34.365Z,96637.63
2023-11-11T16:01:42.753Z,96662.19
2023-11-11T16:04:44.827Z,96675.69
2023-11-11T16:07:47.428Z,96676.88
2023-11-11T16:10:54.107Z,96690.31
2023-11-11T16:14:07.655Z,96703.41
2023-11-11T16:17:21.854Z,96697.09
2023-11-11T16:20:24.990Z,96700.66
2023-11-11T16:23:27.882Z,96705.03
2023-11-11T16:26:33.383Z,96699.31
2023-11-11T16:29:39.279Z,96720.47
2023-11-11T16:32:45.070Z,96735.25
2023-11-11T16:35:47.418Z,96731.88
2023-11-11T16:38:49.442Z,96732.78
2023-11-11T16:41:56.449Z,96711.81
2023-11-11T16:44:59.060Z,96741.97
2023-11-11T16:48:01.255Z,96730.44
2023-11-11T16:51:04.550Z,96741.75
2023-11-11T16:54:07.186Z,96741.06
2023-11-11T16:57:10.912Z,96751.66
2023-11-11T17:00:23.187Z,96753.50
2023-11-11T17:03:26.738Z,96757.38
2023-11-11T17:06:29.279Z,96755.53
2023-11-11T17:09:33.125Z,96755.34
2023-11-11T17:12:36.033Z,96762.31
2023-11-11T17:15:39.384Z,96765.28
2023-11-11T17:18:41.867Z,96774.66
2023-11-11T17:21:45.022Z,96771.63
2023-11-11T17:24:47.508Z,96775.66
2023-11-11T17:27:50.273Z,96791.31
2023-11-11T17:30:52.489Z,96779.50
2023-11-11T17:33:57.708Z,96781.66
2023-11-11T17:37:01.908Z,96764.88
2023-11-11T17:40:07.645Z,96767.47
2023-11-11T17:43:18.208Z,96750.59
2023-11-11T17:46:24.410Z,96746.84
2023-11-11T17:49:28.265Z,96769.69
2023-11-11T17:52:32.233Z,96770.16
2023-11-11T17:55:37.063Z,96730.09
2023-11-11T17:58:39.528Z,96769.13
2023-11-11T18:01:42.468Z,96775.59
2023-11-11T18:04:46.137Z,96777.53
2023-11-11T18:07:48.684Z,96777.41
2023-11-11T18:10:51.495Z,96785.22
2023-11-11T18:13:54.032Z,96787.75
2023-11-11T18:16:56.934Z,96800.41
2023-11-11T18:20:02.208Z,96805.22
2023-11-11T18:23:09.676Z,96812.66
2023-11-11T18:26:13.585Z,96818.31
2023-11-11T18:29:16.336Z,96820.50
2023-11-11T18:32:25.135Z,96813.94
2023-11-11T18:35:35.099Z,96822.53
2023-11-11T18:38:42.244Z,96832.44
2023-11-11T18:41:44.821Z,96836.09
2023-11-11T18:44:47.915Z,96838.78
2023-11-11T18:47:51.233Z,96817.53
2023-11-11T18:51:00.152Z,96842.78
2023-11-11T18:54:14.498Z,96839.34
2023-11-11T18:57:28.823Z,96847.97
2023-11-11T19:00:47.391Z,96846.69
2023-11-11T19:03:55.034Z,96856.88
2023-11-11T19:07:00.987Z,96874.44
2023-11-11T19:10:10.330Z,96867.69
2023-11-11T19:13:14.687Z,96879.94
2023-11-11T19:16:20.893Z,96879.75
2023-11-11T19:19:24.759Z,96877.66
2023-11-11T19:22:31.602Z,96893.25
2023-11-11T19:25:37.301Z,96884.63
2023-11-11T19:28:43.313Z,96863.69
2023-11-11T19:31:48.408Z,96902.09
2023-11-11T19:34:52.101Z,96904.25
2023-11-11T19:37:57.382Z,96908.56
2023-11-11T19:41:04.946Z,96908.75
2023-11-11T19:44:10.564Z,96908.00
2023-11-11T19:47:16.904Z,96919.31
2023-11-11T19:50:22.820Z,96911.09
2023-11-11T19:53:27.841Z,96920.63
2023-11-11T19:56:31.826Z,96928.41
2023-11-11T19:59:34.887Z,96916.06
2023-11-11T20:02:38.358Z,96924.09
2023-11-11T20:05:41.507Z,96926.22
2023-11-11T20:08:44.379Z,96903.91
2023-11-11T20:11:48.930Z,96935.91
2023-11-11T20:14:51.610Z,96929.66
2023-11-11T20:17:55.570Z,96947.88
2023-11-11T20:20:58.289Z,96941.94
2023-11-11T20:24:01.512Z,96945.94
2023-11-11T20:27:04.360Z,96941.47
2023-11-11T20:30:12.417Z,96948.19
2023-11-11T20:33:15.153Z,96952.63
2023-11-11T20:36:18.609Z,96944.16
2023-11-11T20:39:25.401Z,96948.03
2023-11-11T20:42:28.749Z,96957.31
2023-11-11T20:45:32.814Z,96952.72
2023-11-11T20:48:36.768Z,96946.09
2023-11-11T20:51:48.620Z,96944.19
2023-11-11T20:54:51.827Z,96938.28
2023-11-11T20:57:55.188Z,96925.94
2023-11-11T21:01:00.204Z,96965.00
2023-11-11T21:04:03.081Z,96963.53
2023-11-11T21:07:05.468Z,96957.75
2023-11-11T21:10:09.809Z,96953.44
2023-11-11T21:13:12.027Z,96958.06
2023-11-11T21:16:14.520Z,96952.88
2023-11-11T21:19:17.198Z,96961.19
2023-11-11T21:22:19.264Z,96959.44
2023-11-11T21:25:24.390Z,96954.19
2023-11-11T21:28:26.582Z,96960.25
2023-11-11T21:31:28.961Z,96957.66
2023-11-11T21:34:31.356Z,96932.78
2023-11-11T21:37:36.028Z,96948.25
2023-11-11T21:40:38.895Z,96937.03
2023-11-11T21:43:41.068Z,96949.19
2023-11-11T21:46:44.149Z,96948.31
2023-11-11T21:49:46.956Z,96942.06
2023-11-11T21:52:50.461Z,96953.59
2023-11-11T21:55:53.661Z,96952.34
2023-11-11T21:58:56.065Z,96958.53
2023-11-11T22:01:59.162Z,96964.81
2023-11-11T22:05:01.486Z,96961.47
2023-11-11T22:08:04.784Z,96957.00
2023-11-11T22:11:11.230Z,96966.78
2023-11-11T22:14:13.562Z,96964.91
2023-11-11T22:17:16.630Z,96925.81
2023-11-11T22:20:19.253Z,96942.31
2023-11-11T22:23:21.767Z,96966.19
2023-11-11T22:26:24.123Z,96959.22
2023-11-11T22:29:26.553Z,96952.84
2023-11-11T22:32:28.911Z,96968.16
2023-11-11T22:35:31.115Z,96970.28
2023-11-11T22:38:33.996Z,96964.25
2023-11-11T22:41:36.914Z,96965.38
2023-11-11T22:44:39.179Z,96974.44
2023-11-11T22:47:47.413Z,96964.28
2023-11-11T22:50:49.784Z,96964.78
2023-11-11T22:53:52.149Z,96955.44
2023-11-11T22:56:54.939Z,96965.19
2023-11-11T22:59:59.807Z,96958.50
2023-11-11T23:03:08.235Z,96968.81
2023-11-11T23:06:11.869Z,96958.97
2023-11-11T23:09:14.560Z,96971.59
2023-11-11T23:12:18.842Z,96975.97
2023-11-11T23:15:24.427Z,96968.94
2023-11-11T23:18:26.748Z,96976.28
2023-11-11T23:21:30.819Z,96971.50
2023-11-11T23:24:35.594Z,96967.91
2023-11-11T23:27:41.650Z,96971.16
2023-11-11T23:30:44.238Z,96976.31
2023-11-11T23:33:46.520Z,96981.16
2023-11-11T23:36:48.724Z,96980.53
2023-11-11T23:39:51.541Z,96970.13
2023-11-11T23:42:54.371Z,96980.03
2023-11-11T23:45:57.215Z,96985.41
2023-11-11T23:48:59.344Z,96973.41
2023-11-11T23:52:01.505Z,96977.41
2023-11-11T23:55:06.395Z,96973.81
2023-11-11T23:58:09.278Z,96983.22
